Time,TemperatureF,DewpointF,PressureIn,WindDirection,WindDirectionDegrees,WindSpeedMPH,WindSpeedGustMPH,Humidity,HourlyPrecipIn,Conditions,Clouds,dailyrainin,SoftwareType,DateUTC
2013-10-02 00:01:00,48.0,41.0,-100.00,North,-999,-999.0,-999.0,78,-99.99,,,-99.99,,2013-10-02 07:01:00,
2013-10-02 00:11:00,48.0,41.0,-100.00,North,-999,-999.0,-999.0,78,-99.99,,,-99.99,,2013-10-02 07:11:00,
2013-10-02 00:52:00,45.0,40.0,-100.00,North,-999,-999.0,-999.0,83,-99.99,,,-99.99,,2013-10-02 07:52:00,
2013-10-02 01:02:00,45.0,40.0,-100.00,North,-999,-999.0,-999.0,83,-99.99,,,-99.99,,2013-10-02 08:02:00,
2013-10-02 01:42:00,45.0,41.0,-100.00,North,-999,-999.0,-999.0,85,-99.99,,,0.00,,2013-10-02 08:42:00,
2013-10-02 01:52:00,43.0,39.0,-100.00,North,-999,-999.0,-999.0,86,-99.99,,,-99.99,,2013-10-02 08:52:00,
2013-10-02 02:01:00,43.0,39.0,-100.00,North,-999,-999.0,-999.0,86,-99.99,,,-99.99,,2013-10-02 09:01:00,
2013-10-02 02:11:00,43.0,39.0,-100.00,North,-999,-999.0,-999.0,86,-99.99,,,-99.99,,2013-10-02 09:11:00,
2013-10-02 02:43:00,43.0,38.0,-100.00,North,-999,-999.0,-999.0,82,-99.99,,,-99.99,,2013-10-02 09:43:00,
2013-10-02 03:12:00,43.0,38.0,-100.00,North,-999,-999.0,-999.0,81,-99.99,,,-99.99,,2013-10-02 10:12:00,
2013-10-02 03:42:00,42.0,39.0,-100.00,North,-999,-999.0,-999.0,88,-99.99,,,-99.99,,2013-10-02 10:42:00,
2013-10-02 04:12:00,42.0,38.0,-100.00,North,-999,-999.0,-999.0,87,-99.99,,,-99.99,,2013-10-02 11:12:00,
2013-10-02 04:43:00,41.0,37.0,-100.00,North,-999,-999.0,-999.0,87,-99.99,,,-99.99,,2013-10-02 11:43:00,
2013-10-02 04:52:00,41.0,37.0,-100.00,North,-999,-999.0,-999.0,86,-99.99,,,-99.99,,2013-10-02 11:52:00,
2013-10-02 05:02:00,41.0,37.0,-100.00,North,-999,-999.0,-999.0,86,-99.99,,,-99.99,,2013-10-02 12:02:00,
2013-10-02 05:12:00,41.0,37.0,-100.00,North,-999,-999.0,-999.0,86,-99.99,,,-99.99,,2013-10-02 12:12:00,
2013-10-02 05:42:00,40.0,36.0,-100.00,North,-999,-999.0,-999.0,85,-99.99,,,-99.99,,2013-10-02 12:42:00,
2013-10-02 06:11:00,40.0,38.0,-100.00,North,-999,-999.0,-999.0,91,-99.99,,,-99.99,,2013-10-02 13:11:00,
2013-10-02 07:11:00,39.0,37.0,-100.00,North,-999,-999.0,-999.0,92,-99.99,,,-99.99,,2013-10-02 14:11:00,
2013-10-02 07:42:00,38.0,35.0,-100.00,North,-999,-999.0,-999.0,88,-99.99,,,-99.99,,2013-10-02 14:42:00,
2013-10-02 07:52:00,39.0,37.0,-100.00,North,-999,-999.0,-999.0,92,-99.99,,,-99.99,,2013-10-02 14:52:00,
2013-10-02 08:01:00,39.0,37.0,-100.00,North,-999,-999.0,-999.0,92,-99.99,,,-99.99,,2013-10-02 15:01:00,
2013-10-02 08:11:00,39.0,37.0,-100.00,North,-999,-999.0,-999.0,92,-99.99,,,-99.99,,2013-10-02 15:11:00,
2013-10-02 08:43:00,42.0,40.0,-100.00,North,-999,-999.0,-999.0,94,-99.99,,,-99.99,,2013-10-02 15:43:00,
2013-10-02 09:12:00,57.0,47.0,-100.00,North,-999,-999.0,-999.0,69,-99.99,,,-99.99,,2013-10-02 16:12:00,
2013-10-02 09:43:00,66.0,49.0,-100.00,North,-999,-999.0,-999.0,55,-99.99,,,-99.99,,2013-10-02 16:43:00,
2013-10-02 09:52:00,68.0,49.0,-100.00,North,-999,-999.0,-999.0,51,-99.99,,,-99.99,,2013-10-02 16:52:00,
2013-10-02 10:02:00,68.0,49.0,-100.00,North,-999,-999.0,-999.0,51,-99.99,,,-99.99,,2013-10-02 17:02:00,
2013-10-02 10:12:00,68.0,49.0,-100.00,North,-999,-999.0,-999.0,51,-99.99,,,-99.99,,2013-10-02 17:12:00,
2013-10-02 10:42:00,72.0,50.0,-100.00,North,-999,-999.0,-999.0,46,-99.99,,,-99.99,,2013-10-02 17:42:00,
2013-10-02 10:52:00,73.0,52.0,-100.00,North,-999,-999.0,-999.0,47,-99.99,,,-99.99,,2013-10-02 17:52:00,
2013-10-02 11:02:00,73.0,52.0,-100.00,North,-999,-999.0,-999.0,47,-99.99,,,-99.99,,2013-10-02 18:02:00,
2013-10-02 11:12:00,73.0,52.0,-100.00,North,-999,-999.0,-999.0,47,-99.99,,,-99.99,,2013-10-02 18:12:00,
2013-10-02 11:21:00,72.0,54.0,-100.00,North,-999,-999.0,-999.0,53,-99.99,,,-99.99,,2013-10-02 18:21:00,
2013-10-02 11:32:00,72.0,54.0,-100.00,North,-999,-999.0,-999.0,53,-99.99,,,-99.99,,2013-10-02 18:32:00,
2013-10-02 11:42:00,72.0,54.0,-100.00,North,-999,-999.0,-999.0,53,-99.99,,,-99.99,,2013-10-02 18:42:00,
2013-10-02 12:11:00,73.0,55.0,-100.00,North,-999,-999.0,-999.0,54,-99.99,,,-99.99,,2013-10-02 19:11:00,
2013-10-02 12:42:00,73.0,55.0,-100.00,North,-999,-999.0,-999.0,54,-99.99,,,-99.99,,2013-10-02 19:42:00,
2013-10-02 12:52:00,73.0,54.0,-100.00,North,-999,-999.0,-999.0,51,-99.99,,,-99.99,,2013-10-02 19:52:00,
2013-10-02 13:02:00,73.0,54.0,-100.00,North,-999,-999.0,-999.0,51,-99.99,,,-99.99,,2013-10-02 20:02:00,
2013-10-02 13:11:00,73.0,54.0,-100.00,North,-999,-999.0,-999.0,51,-99.99,,,-99.99,,2013-10-02 20:11:00,
2013-10-02 13:42:00,75.0,52.0,-100.00,North,-999,-999.0,-999.0,45,-99.99,,,-99.99,,2013-10-02 20:42:00,
2013-10-02 13:52:00,74.0,54.0,-100.00,North,-999,-999.0,-999.0,49,-99.99,,,-99.99,,2013-10-02 20:52:00,
2013-10-02 14:01:00,74.0,54.0,-100.00,North,-999,-999.0,-999.0,49,-99.99,,,-99.99,,2013-10-02 21:01:00,
2013-10-02 14:11:00,74.0,54.0,-100.00,North,-999,-999.0,-999.0,49,-99.99,,,-99.99,,2013-10-02 21:11:00,
2013-10-02 14:44:00,75.0,55.0,-100.00,North,-999,-999.0,-999.0,50,-99.99,,,-99.99,,2013-10-02 21:44:00,
2013-10-02 14:54:00,75.0,55.0,-100.00,North,-999,-999.0,-999.0,50,-99.99,,,-99.99,,2013-10-02 21:54:00,
2013-10-02 15:01:00,74.0,56.0,-100.00,North,-999,-999.0,-999.0,53,-99.99,,,-99.99,,2013-10-02 22:01:00,
2013-10-02 15:04:00,75.0,55.0,-100.00,North,-999,-999.0,-999.0,50,-99.99,,,-99.99,,2013-10-02 22:04:00,
2013-10-02 15:44:00,74.0,56.0,-100.00,North,-999,-999.0,-999.0,53,-99.99,,,-99.99,,2013-10-02 22:44:00,
2013-10-02 15:53:00,74.0,56.0,-100.00,North,-999,-999.0,-999.0,53,-99.99,,,-99.99,,2013-10-02 22:53:00,
2013-10-02 17:12:00,72.0,56.0,-100.00,North,-999,-999.0,-999.0,58,-99.99,,,-99.99,,2013-10-03 00:12:00,
2013-10-02 17:22:00,69.0,58.0,-100.00,North,-999,-999.0,-999.0,67,-99.99,,,-99.99,,2013-10-03 00:22:00,
2013-10-02 17:32:00,69.0,58.0,-100.00,North,-999,-999.0,-999.0,67,-99.99,,,-99.99,,2013-10-03 00:32:00,
2013-10-02 17:42:00,69.0,58.0,-100.00,North,-999,-999.0,-999.0,67,-99.99,,,-99.99,,2013-10-03 00:42:00,
2013-10-02 17:52:00,67.0,58.0,-100.00,North,-999,-999.0,-999.0,72,-99.99,,,-99.99,,2013-10-03 00:52:00,
2013-10-02 18:02:00,67.0,58.0,-100.00,North,-999,-999.0,-999.0,72,-99.99,,,-99.99,,2013-10-03 01:02:00,
2013-10-02 18:11:00,67.0,58.0,-100.00,North,-999,-999.0,-999.0,72,-99.99,,,-99.99,,2013-10-03 01:11:00,
2013-10-02 18:42:00,66.0,57.0,-100.00,North,-999,-999.0,-999.0,74,-99.99,,,-99.99,,2013-10-03 01:42:00,
2013-10-02 18:52:00,62.0,56.0,-100.00,North,-999,-999.0,-999.0,80,-99.99,,,-99.99,,2013-10-03 01:52:00,
2013-10-02 19:01:00,62.0,56.0,-100.00,North,-999,-999.0,-999.0,80,-99.99,,,-99.99,,2013-10-03 02:01:00,
2013-10-02 19:11:00,62.0,56.0,-100.00,North,-999,-999.0,-999.0,80,-99.99,,,-99.99,,2013-10-03 02:11:00,
2013-10-02 20:01:00,54.0,49.0,-100.00,North,-999,-999.0,-999.0,82,-99.99,,,-99.99,,2013-10-03 03:01:00,
2013-10-02 20:44:00,54.0,49.0,-100.00,North,-999,-999.0,-999.0,82,-99.99,,,-99.99,,2013-10-03 03:44:00,
2013-10-02 20:54:00,54.0,49.0,-100.00,North,-999,-999.0,-999.0,82,-99.99,,,-99.99,,2013-10-03 03:54:00,
2013-10-02 21:44:00,50.0,47.0,-100.00,North,-999,-999.0,-999.0,88,-99.99,,,-99.99,,2013-10-03 04:44:00,
2013-10-02 21:53:00,49.0,46.0,-100.00,North,-999,-999.0,-999.0,88,-99.99,,,-99.99,,2013-10-03 04:53:00,
2013-10-02 22:04:00,49.0,46.0,-100.00,North,-999,-999.0,-999.0,88,-99.99,,,-99.99,,2013-10-03 05:04:00,
2013-10-02 22:13:00,49.0,46.0,-100.00,North,-999,-999.0,-999.0,88,-99.99,,,-99.99,,2013-10-03 05:13:00,
2013-10-02 23:12:00,46.0,41.0,-100.00,North,-999,-999.0,-999.0,84,-99.99,,,-99.99,,2013-10-03 06:12:00,
2013-10-02 23:42:00,44.0,40.0,-100.00,North,-999,-999.0,-999.0,86,-99.99,,,-99.99,,2013-10-03 06:42:00,
2013-10-02 23:52:00,42.0,36.0,-100.00,North,-999,-999.0,-999.0,78,-99.99,,,-99.99,,2013-10-03 06:52:00,